Time,TemperatureF,DewpointF,PressureIn,WindDirection,WindDirectionDegrees,WindSpeedMPH,WindSpeedGustMPH,Humidity,HourlyPrecipIn,Conditions,Clouds,dailyrainin,SolarRadiationWatts/m^2,SoftwareType,DateUTC
2013-08-26 00:11:00,55.0,52.0,-100.00,SE,124,4.0,7.0,91,0.00,,,0.01,0.000000,,2013-08-26 07:11:00,
2013-08-26 00:21:00,55.0,52.0,-100.00,SE,124,4.0,7.0,91,0.00,,,0.01,0.000000,,2013-08-26 07:21:00,
2013-08-26 00:32:00,55.0,52.0,-100.00,SE,124,4.0,7.0,91,0.00,,,0.01,0.000000,,2013-08-26 07:32:00,
2013-08-26 00:42:00,55.0,52.0,-100.00,SE,124,4.0,7.0,91,0.00,,,0.01,0.000000,,2013-08-26 07:42:00,
2013-08-26 01:11:00,54.0,52.0,-100.00,SE,136,6.0,7.0,92,0.00,,,0.01,0.000000,,2013-08-26 08:11:00,
2013-08-26 01:22:00,54.0,52.0,-100.00,SE,136,6.0,7.0,92,0.00,,,0.01,0.000000,,2013-08-26 08:22:00,
2013-08-26 01:31:00,54.0,52.0,-100.00,SE,136,6.0,7.0,92,0.00,,,0.01,0.000000,,2013-08-26 08:31:00,
2013-08-26 01:42:00,54.0,52.0,-100.00,SE,136,6.0,7.0,92,0.00,,,0.01,0.000000,,2013-08-26 08:42:00,
2013-08-26 02:11:00,53.0,50.0,-100.00,SSE,147,7.0,9.0,89,0.00,,,0.01,0.000000,,2013-08-26 09:11:00,
2013-08-26 02:21:00,53.0,50.0,-100.00,SSE,147,7.0,9.0,89,0.00,,,0.01,0.000000,,2013-08-26 09:21:00,
2013-08-26 02:33:00,53.0,50.0,-100.00,SSE,147,7.0,9.0,89,0.00,,,0.01,0.000000,,2013-08-26 09:33:00,
2013-08-26 02:43:00,53.0,50.0,-100.00,SSE,147,7.0,9.0,89,0.00,,,0.01,0.000000,,2013-08-26 09:43:00,
2013-08-26 03:12:00,52.0,49.0,-100.00,SE,127,7.0,10.0,89,0.00,,,0.01,0.000000,,2013-08-26 10:12:00,
2013-08-26 03:23:00,52.0,49.0,-100.00,SE,127,7.0,10.0,89,0.00,,,0.01,0.000000,,2013-08-26 10:23:00,
2013-08-26 03:32:00,52.0,49.0,-100.00,SE,127,7.0,10.0,89,0.00,,,0.01,0.000000,,2013-08-26 10:32:00,
2013-08-26 03:42:00,52.0,49.0,-100.00,SE,127,7.0,10.0,89,0.00,,,0.01,0.000000,,2013-08-26 10:42:00,
2013-08-26 04:12:00,53.0,52.0,-100.00,SE,134,9.0,12.0,97,0.00,,,0.01,0.000000,,2013-08-26 11:12:00,
2013-08-26 04:22:00,53.0,52.0,-100.00,SE,134,9.0,12.0,97,0.00,,,0.01,0.000000,,2013-08-26 11:22:00,
2013-08-26 04:33:00,53.0,52.0,-100.00,SE,134,9.0,12.0,97,0.00,,,0.01,0.000000,,2013-08-26 11:33:00,
2013-08-26 04:42:00,53.0,52.0,-100.00,SE,134,9.0,12.0,97,0.00,,,0.01,0.000000,,2013-08-26 11:42:00,
2013-08-26 05:12:00,54.0,54.0,-100.00,ESE,113,6.0,11.0,99,0.00,,,0.01,0.000000,,2013-08-26 12:12:00,
2013-08-26 05:21:00,54.0,54.0,-100.00,ESE,113,6.0,11.0,99,0.00,,,0.01,0.000000,,2013-08-26 12:21:00,
2013-08-26 05:32:00,54.0,54.0,-100.00,ESE,113,6.0,11.0,99,0.00,,,0.01,0.000000,,2013-08-26 12:32:00,
2013-08-26 05:42:00,54.0,54.0,-100.00,ESE,113,6.0,11.0,99,0.00,,,0.01,0.000000,,2013-08-26 12:42:00,
2013-08-26 06:11:00,53.0,53.0,-100.00,SE,136,8.0,13.0,99,0.00,,,0.01,0.000000,,2013-08-26 13:11:00,
2013-08-26 06:21:00,53.0,53.0,-100.00,SE,136,8.0,13.0,99,0.00,,,0.01,0.000000,,2013-08-26 13:21:00,
2013-08-26 06:32:00,53.0,53.0,-100.00,SE,136,8.0,13.0,99,0.00,,,0.01,0.000000,,2013-08-26 13:32:00,
2013-08-26 06:42:00,53.0,53.0,-100.00,SE,136,8.0,13.0,99,0.00,,,0.01,0.000000,,2013-08-26 13:42:00,
2013-08-26 07:11:00,53.0,53.0,-100.00,South,180,3.0,8.0,99,0.00,,,0.01,0.000000,,2013-08-26 14:11:00,
2013-08-26 07:22:00,53.0,53.0,-100.00,South,180,3.0,8.0,99,0.00,,,0.01,0.000000,,2013-08-26 14:22:00,
2013-08-26 07:32:00,53.0,53.0,-100.00,South,180,3.0,8.0,99,0.00,,,0.01,0.000000,,2013-08-26 14:32:00,
2013-08-26 07:42:00,53.0,53.0,-100.00,South,180,3.0,8.0,99,0.00,,,0.01,0.000000,,2013-08-26 14:42:00,
2013-08-26 08:12:00,55.0,55.0,-100.00,SE,138,3.0,7.0,99,0.00,,,-99.99,0.000000,,2013-08-26 15:12:00,
2013-08-26 08:22:00,55.0,55.0,-100.00,SE,138,3.0,7.0,99,0.00,,,-99.99,0.000000,,2013-08-26 15:22:00,
2013-08-26 08:35:00,55.0,55.0,-100.00,SE,138,3.0,7.0,99,0.00,,,-99.99,0.000000,,2013-08-26 15:35:00,
2013-08-26 08:47:00,55.0,55.0,-100.00,SE,138,3.0,7.0,99,0.00,,,-99.99,0.000000,,2013-08-26 15:47:00,
2013-08-26 08:48:00,55.0,55.0,-100.00,ESE,103,2.0,6.0,99,0.00,,,0.01,5.000000,,2013-08-26 15:48:00,
2013-08-26 09:17:00,55.0,55.0,-100.00,ESE,103,2.0,6.0,99,0.00,,,0.01,5.000000,,2013-08-26 16:17:00,
2013-08-26 09:29:00,55.0,55.0,-100.00,ESE,103,2.0,6.0,99,0.00,,,0.01,5.000000,,2013-08-26 16:29:00,
2013-08-26 09:36:00,55.0,55.0,-100.00,ESE,103,2.0,6.0,99,0.00,,,0.01,5.000000,,2013-08-26 16:36:00,
2013-08-26 10:12:00,59.0,57.0,-100.00,SE,134,1.0,6.0,93,0.00,,,0.01,72.000000,,2013-08-26 17:12:00,
2013-08-26 10:24:00,59.0,57.0,-100.00,SE,134,1.0,6.0,93,0.00,,,0.01,72.000000,,2013-08-26 17:24:00,
2013-08-26 10:36:00,59.0,57.0,-100.00,SE,134,1.0,6.0,93,0.00,,,0.01,72.000000,,2013-08-26 17:36:00,
2013-08-26 10:43:00,59.0,57.0,-100.00,SE,134,1.0,6.0,93,0.00,,,0.01,72.000000,,2013-08-26 17:43:00,
2013-08-26 11:12:00,65.0,53.0,-100.00,SE,137,6.0,10.0,65,0.00,,,0.01,479.000000,,2013-08-26 18:12:00,
2013-08-26 11:21:00,65.0,53.0,-100.00,SE,137,6.0,10.0,65,0.00,,,0.01,479.000000,,2013-08-26 18:21:00,
2013-08-26 11:31:00,65.0,53.0,-100.00,SE,137,6.0,10.0,65,0.00,,,0.01,479.000000,,2013-08-26 18:31:00,
2013-08-26 11:42:00,65.0,53.0,-100.00,SE,137,6.0,10.0,65,0.00,,,0.01,479.000000,,2013-08-26 18:42:00,
2013-08-26 12:22:00,67.0,53.0,-100.00,SSE,152,7.0,13.0,60,0.00,,,0.01,517.000000,,2013-08-26 19:22:00,
2013-08-26 12:32:00,67.0,53.0,-100.00,SSE,152,7.0,13.0,60,0.00,,,0.01,517.000000,,2013-08-26 19:32:00,
2013-08-26 12:42:00,67.0,53.0,-100.00,SSE,152,7.0,13.0,60,0.00,,,0.01,517.000000,,2013-08-26 19:42:00,
2013-08-26 13:11:00,68.0,50.0,-100.00,SE,138,8.0,17.0,52,0.00,,,0.01,352.000000,,2013-08-26 20:11:00,
2013-08-26 13:21:00,68.0,50.0,-100.00,SE,138,8.0,17.0,52,0.00,,,0.01,352.000000,,2013-08-26 20:21:00,
2013-08-26 13:32:00,68.0,50.0,-100.00,SE,138,8.0,17.0,52,0.00,,,0.01,352.000000,,2013-08-26 20:32:00,
2013-08-26 13:42:00,68.0,50.0,-100.00,SE,138,8.0,17.0,52,0.00,,,0.01,352.000000,,2013-08-26 20:42:00,
2013-08-26 14:11:00,71.0,50.0,-100.00,SSE,158,8.0,19.0,47,0.00,,,0.01,224.000000,,2013-08-26 21:11:00,
2013-08-26 14:22:00,71.0,50.0,-100.00,SSE,158,8.0,19.0,47,0.00,,,0.01,224.000000,,2013-08-26 21:22:00,
2013-08-26 14:35:00,71.0,50.0,-100.00,SSE,158,8.0,19.0,47,0.00,,,0.01,224.000000,,2013-08-26 21:35:00,
2013-08-26 14:44:00,71.0,50.0,-100.00,SSE,158,8.0,19.0,47,0.00,,,0.01,224.000000,,2013-08-26 21:44:00,
2013-08-26 15:26:00,72.0,49.0,-100.00,SSE,164,11.0,20.0,44,0.00,,,0.01,131.000000,,2013-08-26 22:26:00,
2013-08-26 15:34:00,72.0,49.0,-100.00,SSE,164,11.0,20.0,44,0.00,,,0.01,131.000000,,2013-08-26 22:34:00,
2013-08-26 15:42:00,72.0,49.0,-100.00,SSE,164,11.0,20.0,44,0.00,,,0.01,131.000000,,2013-08-26 22:42:00,
2013-08-26 16:12:00,67.0,49.0,-100.00,South,179,9.0,19.0,52,0.00,,,0.01,0.000000,,2013-08-26 23:12:00,
2013-08-26 16:22:00,67.0,49.0,-100.00,South,179,9.0,19.0,52,0.00,,,0.01,0.000000,,2013-08-26 23:22:00,
2013-08-26 16:34:00,67.0,49.0,-100.00,South,179,9.0,19.0,52,0.00,,,0.01,0.000000,,2013-08-26 23:34:00,
2013-08-26 16:42:00,67.0,49.0,-100.00,South,179,9.0,19.0,52,0.00,,,0.01,0.000000,,2013-08-26 23:42:00,
2013-08-26 17:11:00,71.0,49.0,-100.00,SSW,199,11.0,18.0,46,0.00,,,0.01,4.000000,,2013-08-27 00:11:00,
2013-08-26 17:21:00,71.0,49.0,-100.00,SSW,199,11.0,18.0,46,0.00,,,0.01,4.000000,,2013-08-27 00:21:00,
2013-08-26 17:32:00,71.0,49.0,-100.00,SSW,199,11.0,18.0,46,0.00,,,0.01,4.000000,,2013-08-27 00:32:00,
2013-08-26 17:42:00,71.0,49.0,-100.00,SSW,199,11.0,18.0,46,0.00,,,0.01,4.000000,,2013-08-27 00:42:00,
2013-08-26 18:12:00,72.0,49.0,-100.00,SSW,198,12.0,20.0,45,0.00,,,0.01,156.000000,,2013-08-27 01:12:00,
2013-08-26 18:21:00,72.0,49.0,-100.00,SSW,198,12.0,20.0,45,0.00,,,0.01,156.000000,,2013-08-27 01:21:00,
2013-08-26 18:32:00,72.0,49.0,-100.00,SSW,198,12.0,20.0,45,0.00,,,0.01,156.000000,,2013-08-27 01:32:00,
2013-08-26 18:42:00,72.0,49.0,-100.00,SSW,198,12.0,20.0,45,0.00,,,0.01,156.000000,,2013-08-27 01:42:00,
2013-08-26 19:12:00,71.0,46.0,-100.00,SSW,209,12.0,21.0,41,0.00,,,0.01,58.000000,,2013-08-27 02:12:00,
2013-08-26 19:21:00,71.0,46.0,-100.00,SSW,209,12.0,21.0,41,0.00,,,0.01,58.000000,,2013-08-27 02:21:00,
2013-08-26 19:32:00,71.0,46.0,-100.00,SSW,209,12.0,21.0,41,0.00,,,0.01,58.000000,,2013-08-27 02:32:00,
2013-08-26 19:42:00,71.0,46.0,-100.00,SSW,209,12.0,21.0,41,0.00,,,0.01,58.000000,,2013-08-27 02:42:00,
2013-08-26 20:12:00,66.0,48.0,-100.00,SSW,199,7.0,16.0,52,0.00,,,0.01,0.000000,,2013-08-27 03:12:00,
2013-08-26 20:22:00,66.0,48.0,-100.00,SSW,199,7.0,16.0,52,0.00,,,0.01,0.000000,,2013-08-27 03:22:00,
2013-08-26 20:36:00,66.0,48.0,-100.00,SSW,199,7.0,16.0,52,0.00,,,0.01,0.000000,,2013-08-27 03:36:00,
2013-08-26 20:44:00,66.0,48.0,-100.00,SSW,199,7.0,16.0,52,0.00,,,0.01,0.000000,,2013-08-27 03:44:00,
2013-08-26 21:18:00,61.0,47.0,-100.00,West,278,4.0,8.0,60,0.00,,,-99.99,0.000000,,2013-08-27 04:18:00,
2013-08-26 21:29:00,61.0,47.0,-100.00,West,278,4.0,8.0,60,0.00,,,-99.99,0.000000,,2013-08-27 04:29:00,
2013-08-26 21:38:00,61.0,47.0,-100.00,West,278,4.0,8.0,60,0.00,,,-99.99,0.000000,,2013-08-27 04:38:00,
2013-08-26 21:46:00,61.0,47.0,-100.00,West,278,4.0,8.0,60,0.00,,,-99.99,0.000000,,2013-08-27 04:46:00,
2013-08-26 22:13:00,62.0,47.0,-100.00,West,274,6.0,8.0,59,0.00,,,0.00,0.000000,,2013-08-27 05:13:00,
2013-08-26 22:23:00,62.0,47.0,-100.00,West,274,6.0,8.0,59,0.00,,,0.00,0.000000,,2013-08-27 05:23:00,
2013-08-26 22:34:00,62.0,47.0,-100.00,West,274,6.0,8.0,59,0.00,,,0.00,0.000000,,2013-08-27 05:34:00,
2013-08-26 22:43:00,62.0,47.0,-100.00,West,274,6.0,8.0,59,0.00,,,0.00,0.000000,,2013-08-27 05:43:00,
2013-08-26 23:12:00,59.0,47.0,-100.00,NW,321,2.0,7.0,64,0.00,,,0.00,0.000000,,2013-08-27 06:12:00,
2013-08-26 23:21:00,59.0,47.0,-100.00,NW,321,2.0,7.0,64,0.00,,,0.00,0.000000,,2013-08-27 06:21:00,
2013-08-26 23:32:00,59.0,47.0,-100.00,NW,321,2.0,7.0,64,0.00,,,0.00,0.000000,,2013-08-27 06:32:00,
2013-08-26 23:42:00,59.0,47.0,-100.00,NW,321,2.0,7.0,64,0.00,,,0.00,0.000000,,2013-08-27 06:42:00,